Pagrindinis puslapis
METAR-TAF:

METAR-TAF

Oro uostai :

Mauricijus, Mauricijus

platuma: 20-26S, ilguma: 057-40E, Aukštis: 55 m

Dabartinis oras

Ataskaita buvo paskelbta 17 minutes, ne 20:00 UTC
Vėjas 7 kt iš Pietų/Pietryčių
Temperatūra 22°C
Drėgmė 88%
Slėgis 1020 hPa
Matomumas: 6000 m
Mažai debesys ne aukštis 900 ft
Su prošvaistėmis ne aukštis 1600 ft
Su prošvaistėmis ne aukštis 5000 ft
Liūtis kaimynystėje

METAR: FIMP 222000Z 15007KT 6000 VCSH FEW009 BKN016 BKN050 22/20 Q1020

Laikas: 00:17 (20:17 UTC)

Prognozė

Ataskaita buvo paskelbta 3 valandos ir 17 minutes, ne 17:00 UTC
Prognozė galioja nuo 22 metu 18 UTC su 24 metu 00 UTC
Vėjas 8 kt iš Pietryčių
Matomumas 10 km arba daugiau
Išsisklaidę debesys ne aukštis 1800 ft
Laikinai
nuo 22 metu 18 UTC su 23 metu 00 UTC
Matomumas: 7000 m
Su prošvaistėmis ne aukštis 1600 ft
lietus

TAF: FIMP 221700Z 2218/2400 13008KT 9999 SCT018 TEMPO 2218/2300 7000 -SHRA BKN016

Orai ataskaitas ir orų prognozės (METAR, TAF).

turimą stotys yra geltonos ir raudonos taškus žemėlapyje.

Perkelti pele per norėdami pamatyti stoties vardą.

Tada spustelėkite, norėdami matyti oro stebėjimo ir prognozės.

Norėdami pakeisti žemėlapį: spustelėkite ant žalios mygtukų su juodo kryžiaus žemyn,; žalią mygtuką su brūkšneliu, jei norite nutolinti; arba žalių rodyklių gretimoms žemėlapius.


METAR-TAF: